sensor_id;sensor_type;location;lat;lon;timestamp;P1;durP1;ratioP1;P2;durP2;ratioP2
76051;SDS011;64751;48.708;9.710;2023-12-28T00:00:30;0.10;;;0.10;;
76051;SDS011;64751;48.708;9.710;2023-12-28T00:03:03;0.15;;;0.15;;
76051;SDS011;64751;48.708;9.710;2023-12-28T00:05:36;0.10;;;0.10;;
76051;SDS011;64751;48.708;9.710;2023-12-28T00:10:37;0.10;;;0.10;;
76051;SDS011;64751;48.708;9.710;2023-12-28T00:13:04;0.00;;;0.00;;
76051;SDS011;64751;48.708;9.710;2023-12-28T00:15:37;0.20;;;0.20;;
76051;SDS011;64751;48.708;9.710;2023-12-28T00:20:42;0.10;;;0.10;;
76051;SDS011;64751;48.708;9.710;2023-12-28T00:23:11;0.20;;;0.20;;
76051;SDS011;64751;48.708;9.710;2023-12-28T00:25:38;0.20;;;0.20;;
76051;SDS011;64751;48.708;9.710;2023-12-28T00:28:11;0.10;;;0.10;;
76051;SDS011;64751;48.708;9.710;2023-12-28T00:30:44;0.10;;;0.10;;
76051;SDS011;64751;48.708;9.710;2023-12-28T00:33:12;0.10;;;0.10;;
76051;SDS011;64751;48.708;9.710;2023-12-28T00:38:18;0.20;;;0.20;;
76051;SDS011;64751;48.708;9.710;2023-12-28T00:40:45;0.22;;;0.22;;
76051;SDS011;64751;48.708;9.710;2023-12-28T00:45:50;0.10;;;0.10;;
76051;SDS011;64751;48.708;9.710;2023-12-28T00:48:22;0.10;;;0.10;;
76051;SDS011;64751;48.708;9.710;2023-12-28T00:50:49;0.30;;;0.15;;
76051;SDS011;64751;48.708;9.710;2023-12-28T00:53:18;0.20;;;0.20;;
76051;SDS011;64751;48.708;9.710;2023-12-28T00:55:46;0.20;;;0.20;;
76051;SDS011;64751;48.708;9.710;2023-12-28T00:58:18;0.10;;;0.10;;
76051;SDS011;64751;48.708;9.710;2023-12-28T01:03:22;0.10;;;0.10;;
76051;SDS011;64751;48.708;9.710;2023-12-28T01:05:55;0.10;;;0.10;;
76051;SDS011;64751;48.708;9.710;2023-12-28T01:08:29;0.13;;;0.13;;
76051;SDS011;64751;48.708;9.710;2023-12-28T01:11:01;0.10;;;0.10;;
76051;SDS011;64751;48.708;9.710;2023-12-28T01:13:34;0.10;;;0.10;;
76051;SDS011;64751;48.708;9.710;2023-12-28T01:16:02;0.20;;;0.20;;
76051;SDS011;64751;48.708;9.710;2023-12-28T01:18:35;0.13;;;0.13;;
76051;SDS011;64751;48.708;9.710;2023-12-28T01:21:03;0.10;;;0.10;;
76051;SDS011;64751;48.708;9.710;2023-12-28T01:23:37;0.10;;;0.10;;
76051;SDS011;64751;48.708;9.710;2023-12-28T01:26:12;0.10;;;0.10;;
76051;SDS011;64751;48.708;9.710;2023-12-28T01:28:39;0.15;;;0.10;;
76051;SDS011;64751;48.708;9.710;2023-12-28T01:31:13;0.10;;;0.10;;
76051;SDS011;64751;48.708;9.710;2023-12-28T01:33:41;0.10;;;0.10;;
76051;SDS011;64751;48.708;9.710;2023-12-28T01:36:15;0.28;;;0.17;;
76051;SDS011;64751;48.708;9.710;2023-12-28T01:38:45;0.10;;;0.10;;
76051;SDS011;64751;48.708;9.710;2023-12-28T01:41:13;0.20;;;0.20;;
76051;SDS011;64751;48.708;9.710;2023-12-28T01:43:41;0.17;;;0.17;;
76051;SDS011;64751;48.708;9.710;2023-12-28T01:46:10;0.20;;;0.20;;
76051;SDS011;64751;48.708;9.710;2023-12-28T01:48:43;0.17;;;0.17;;
76051;SDS011;64751;48.708;9.710;2023-12-28T01:51:13;0.00;;;0.00;;
76051;SDS011;64751;48.708;9.710;2023-12-28T01:53:41;0.10;;;0.10;;
76051;SDS011;64751;48.708;9.710;2023-12-28T01:56:11;0.10;;;0.10;;
76051;SDS011;64751;48.708;9.710;2023-12-28T01:58:43;0.20;;;0.20;;
76051;SDS011;64751;48.708;9.710;2023-12-28T02:01:16;0.10;;;0.10;;
76051;SDS011;64751;48.708;9.710;2023-12-28T02:03:44;0.20;;;0.20;;
76051;SDS011;64751;48.708;9.710;2023-12-28T02:06:17;0.05;;;0.05;;
76051;SDS011;64751;48.708;9.710;2023-12-28T02:08:45;0.25;;;0.20;;
76051;SDS011;64751;48.708;9.710;2023-12-28T02:13:52;0.10;;;0.10;;
76051;SDS011;64751;48.708;9.710;2023-12-28T02:16:20;0.03;;;0.03;;
76051;SDS011;64751;48.708;9.710;2023-12-28T02:18:56;0.22;;;0.20;;
76051;SDS011;64751;48.708;9.710;2023-12-28T02:21:32;0.10;;;0.10;;
76051;SDS011;64751;48.708;9.710;2023-12-28T02:24:06;0.10;;;0.10;;
76051;SDS011;64751;48.708;9.710;2023-12-28T02:26:39;0.10;;;0.10;;
76051;SDS011;64751;48.708;9.710;2023-12-28T02:29:12;0.00;;;0.00;;
76051;SDS011;64751;48.708;9.710;2023-12-28T02:34:19;0.10;;;0.10;;
76051;SDS011;64751;48.708;9.710;2023-12-28T02:36:54;0.20;;;0.10;;
76051;SDS011;64751;48.708;9.710;2023-12-28T02:39:29;0.17;;;0.17;;
76051;SDS011;64751;48.708;9.710;2023-12-28T02:42:04;0.10;;;0.10;;
76051;SDS011;64751;48.708;9.710;2023-12-28T02:44:32;0.10;;;0.10;;
76051;SDS011;64751;48.708;9.710;2023-12-28T02:46:59;0.10;;;0.10;;
76051;SDS011;64751;48.708;9.710;2023-12-28T02:49:31;0.15;;;0.15;;
76051;SDS011;64751;48.708;9.710;2023-12-28T02:54:37;0.10;;;0.10;;
76051;SDS011;64751;48.708;9.710;2023-12-28T02:57:05;0.00;;;0.00;;
76051;SDS011;64751;48.708;9.710;2023-12-28T02:59:33;0.50;;;0.38;;
76051;SDS011;64751;48.708;9.710;2023-12-28T03:02:00;0.20;;;0.20;;
76051;SDS011;64751;48.708;9.710;2023-12-28T03:04:28;0.20;;;0.17;;
76051;SDS011;64751;48.708;9.710;2023-12-28T03:07:00;0.10;;;0.10;;
76051;SDS011;64751;48.708;9.710;2023-12-28T03:09:28;0.28;;;0.28;;
76051;SDS011;64751;48.708;9.710;2023-12-28T03:12:01;0.10;;;0.05;;
76051;SDS011;64751;48.708;9.710;2023-12-28T03:14:29;0.10;;;0.10;;
76051;SDS011;64751;48.708;9.710;2023-12-28T03:16:57;0.25;;;0.10;;
76051;SDS011;64751;48.708;9.710;2023-12-28T03:19:24;0.10;;;0.10;;
76051;SDS011;64751;48.708;9.710;2023-12-28T03:24:24;0.10;;;0.10;;
76051;SDS011;64751;48.708;9.710;2023-12-28T03:26:56;0.17;;;0.17;;
76051;SDS011;64751;48.708;9.710;2023-12-28T03:29:24;0.10;;;0.10;;
76051;SDS011;64751;48.708;9.710;2023-12-28T03:31:58;0.10;;;0.10;;
76051;SDS011;64751;48.708;9.710;2023-12-28T03:34:26;0.00;;;0.00;;
76051;SDS011;64751;48.708;9.710;2023-12-28T03:37:00;0.10;;;0.10;;
76051;SDS011;64751;48.708;9.710;2023-12-28T03:39:33;0.10;;;0.10;;
76051;SDS011;64751;48.708;9.710;2023-12-28T03:42:00;0.10;;;0.10;;
76051;SDS011;64751;48.708;9.710;2023-12-28T03:44:28;0.08;;;0.08;;
76051;SDS011;64751;48.708;9.710;2023-12-28T03:46:55;0.10;;;0.10;;
76051;SDS011;64751;48.708;9.710;2023-12-28T03:49:29;0.17;;;0.17;;
76051;SDS011;64751;48.708;9.710;2023-12-28T03:51:56;0.10;;;0.10;;
76051;SDS011;64751;48.708;9.710;2023-12-28T03:57:01;0.10;;;0.10;;
76051;SDS011;64751;48.708;9.710;2023-12-28T03:59:29;0.15;;;0.15;;
76051;SDS011;64751;48.708;9.710;2023-12-28T04:01:56;0.00;;;0.00;;
76051;SDS011;64751;48.708;9.710;2023-12-28T04:04:29;0.10;;;0.10;;
76051;SDS011;64751;48.708;9.710;2023-12-28T04:07:01;0.10;;;0.10;;
76051;SDS011;64751;48.708;9.710;2023-12-28T04:09:33;0.15;;;0.15;;
76051;SDS011;64751;48.708;9.710;2023-12-28T04:12:05;0.28;;;0.15;;
76051;SDS011;64751;48.708;9.710;2023-12-28T04:14:33;0.10;;;0.10;;
76051;SDS011;64751;48.708;9.710;2023-12-28T04:19:39;0.20;;;0.20;;
76051;SDS011;64751;48.708;9.710;2023-12-28T04:22:11;0.20;;;0.20;;
76051;SDS011;64751;48.708;9.710;2023-12-28T04:24:39;0.20;;;0.20;;
76051;SDS011;64751;48.708;9.710;2023-12-28T04:27:11;0.00;;;0.00;;
76051;SDS011;64751;48.708;9.710;2023-12-28T04:29:39;0.10;;;0.10;;
76051;SDS011;64751;48.708;9.710;2023-12-28T04:32:11;0.10;;;0.10;;
76051;SDS011;64751;48.708;9.710;2023-12-28T04:34:40;0.15;;;0.13;;
76051;SDS011;64751;48.708;9.710;2023-12-28T04:37:08;0.05;;;0.05;;
76051;SDS011;64751;48.708;9.710;2023-12-28T04:39:35;0.10;;;0.10;;
76051;SDS011;64751;48.708;9.710;2023-12-28T04:42:04;0.15;;;0.15;;
76051;SDS011;64751;48.708;9.710;2023-12-28T04:44:32;0.10;;;0.10;;
76051;SDS011;64751;48.708;9.710;2023-12-28T04:47:04;0.30;;;0.30;;
76051;SDS011;64751;48.708;9.710;2023-12-28T04:49:32;0.10;;;0.10;;
76051;SDS011;64751;48.708;9.710;2023-12-28T04:52:00;0.13;;;0.13;;
76051;SDS011;64751;48.708;9.710;2023-12-28T04:54:33;0.10;;;0.10;;
76051;SDS011;64751;48.708;9.710;2023-12-28T04:57:00;0.40;;;0.30;;
76051;SDS011;64751;48.708;9.710;2023-12-28T04:59:33;0.10;;;0.10;;
76051;SDS011;64751;48.708;9.710;2023-12-28T05:04:32;0.10;;;0.10;;
76051;SDS011;64751;48.708;9.710;2023-12-28T05:07:07;0.10;;;0.10;;
76051;SDS011;64751;48.708;9.710;2023-12-28T05:09:34;0.20;;;0.20;;
76051;SDS011;64751;48.708;9.710;2023-12-28T05:14:34;0.10;;;0.10;;
76051;SDS011;64751;48.708;9.710;2023-12-28T05:17:01;0.22;;;0.22;;
76051;SDS011;64751;48.708;9.710;2023-12-28T05:19:29;0.17;;;0.17;;
76051;SDS011;64751;48.708;9.710;2023-12-28T05:22:02;0.10;;;0.00;;
76051;SDS011;64751;48.708;9.710;2023-12-28T05:24:38;0.10;;;0.10;;
76051;SDS011;64751;48.708;9.710;2023-12-28T05:27:11;0.20;;;0.20;;
76051;SDS011;64751;48.708;9.710;2023-12-28T05:29:38;0.15;;;0.10;;
76051;SDS011;64751;48.708;9.710;2023-12-28T05:32:06;0.10;;;0.10;;
76051;SDS011;64751;48.708;9.710;2023-12-28T05:34:33;0.20;;;0.20;;
76051;SDS011;64751;48.708;9.710;2023-12-28T05:37:01;0.05;;;0.05;;
76051;SDS011;64751;48.708;9.710;2023-12-28T05:42:02;0.10;;;0.10;;
76051;SDS011;64751;48.708;9.710;2023-12-28T05:44:29;0.08;;;0.08;;
76051;SDS011;64751;48.708;9.710;2023-12-28T05:47:02;0.15;;;0.15;;
76051;SDS011;64751;48.708;9.710;2023-12-28T05:49:29;0.13;;;0.13;;
76051;SDS011;64751;48.708;9.710;2023-12-28T05:51:57;0.22;;;0.13;;
76051;SDS011;64751;48.708;9.710;2023-12-28T05:54:24;0.10;;;0.10;;
76051;SDS011;64751;48.708;9.710;2023-12-28T05:56:52;0.10;;;0.10;;
76051;SDS011;64751;48.708;9.710;2023-12-28T05:59:26;0.20;;;0.20;;
76051;SDS011;64751;48.708;9.710;2023-12-28T06:01:59;0.17;;;0.17;;
76051;SDS011;64751;48.708;9.710;2023-12-28T06:07:04;0.30;;;0.20;;
76051;SDS011;64751;48.708;9.710;2023-12-28T06:09:31;0.20;;;0.20;;
76051;SDS011;64751;48.708;9.710;2023-12-28T06:11:59;0.30;;;0.30;;
76051;SDS011;64751;48.708;9.710;2023-12-28T06:14:33;0.20;;;0.20;;
76051;SDS011;64751;48.708;9.710;2023-12-28T06:17:00;0.10;;;0.10;;
76051;SDS011;64751;48.708;9.710;2023-12-28T06:19:35;0.20;;;0.20;;
76051;SDS011;64751;48.708;9.710;2023-12-28T06:24:37;0.17;;;0.17;;
76051;SDS011;64751;48.708;9.710;2023-12-28T06:27:05;0.15;;;0.15;;
76051;SDS011;64751;48.708;9.710;2023-12-28T06:29:36;0.25;;;0.17;;
76051;SDS011;64751;48.708;9.710;2023-12-28T06:32:04;0.30;;;0.28;;
76051;SDS011;64751;48.708;9.710;2023-12-28T06:34:32;0.10;;;0.10;;
76051;SDS011;64751;48.708;9.710;2023-12-28T06:37:00;0.10;;;0.10;;
76051;SDS011;64751;48.708;9.710;2023-12-28T06:39:33;0.00;;;0.00;;
76051;SDS011;64751;48.708;9.710;2023-12-28T06:44:38;0.30;;;0.30;;
76051;SDS011;64751;48.708;9.710;2023-12-28T06:47:06;0.30;;;0.20;;
76051;SDS011;64751;48.708;9.710;2023-12-28T06:49:33;0.10;;;0.10;;
76051;SDS011;64751;48.708;9.710;2023-12-28T06:52:01;0.20;;;0.20;;
76051;SDS011;64751;48.708;9.710;2023-12-28T06:54:28;0.13;;;0.13;;
76051;SDS011;64751;48.708;9.710;2023-12-28T06:59:29;0.30;;;0.30;;
76051;SDS011;64751;48.708;9.710;2023-12-28T07:04:30;0.10;;;0.10;;
76051;SDS011;64751;48.708;9.710;2023-12-28T07:06:58;0.10;;;0.10;;
76051;SDS011;64751;48.708;9.710;2023-12-28T07:12:04;0.10;;;0.10;;
76051;SDS011;64751;48.708;9.710;2023-12-28T07:14:31;0.10;;;0.10;;
76051;SDS011;64751;48.708;9.710;2023-12-28T07:16:58;0.40;;;0.20;;
76051;SDS011;64751;48.708;9.710;2023-12-28T07:19:27;0.03;;;0.03;;
76051;SDS011;64751;48.708;9.710;2023-12-28T07:21:55;0.40;;;0.30;;
76051;SDS011;64751;48.708;9.710;2023-12-28T07:24:22;0.10;;;0.10;;
76051;SDS011;64751;48.708;9.710;2023-12-28T07:26:50;0.00;;;0.00;;
76051;SDS011;64751;48.708;9.710;2023-12-28T07:29:22;0.20;;;0.13;;
76051;SDS011;64751;48.708;9.710;2023-12-28T07:31:50;0.30;;;0.30;;
76051;SDS011;64751;48.708;9.710;2023-12-28T07:34:17;0.10;;;0.10;;
76051;SDS011;64751;48.708;9.710;2023-12-28T07:36:51;0.05;;;0.05;;
76051;SDS011;64751;48.708;9.710;2023-12-28T07:39:19;0.10;;;0.10;;
76051;SDS011;64751;48.708;9.710;2023-12-28T07:41:51;0.40;;;0.40;;
76051;SDS011;64751;48.708;9.710;2023-12-28T07:44:26;0.85;;;0.70;;
76051;SDS011;64751;48.708;9.710;2023-12-28T07:46:59;0.65;;;0.45;;
76051;SDS011;64751;48.708;9.710;2023-12-28T07:49:31;0.35;;;0.35;;
76051;SDS011;64751;48.708;9.710;2023-12-28T07:52:05;0.35;;;0.20;;
76051;SDS011;64751;48.708;9.710;2023-12-28T07:54:33;0.13;;;0.13;;
76051;SDS011;64751;48.708;9.710;2023-12-28T07:57:00;0.20;;;0.20;;
76051;SDS011;64751;48.708;9.710;2023-12-28T07:59:27;0.25;;;0.25;;
76051;SDS011;64751;48.708;9.710;2023-12-28T08:01:55;0.20;;;0.20;;
76051;SDS011;64751;48.708;9.710;2023-12-28T08:04:23;0.20;;;0.20;;
76051;SDS011;64751;48.708;9.710;2023-12-28T08:06:50;0.20;;;0.20;;
76051;SDS011;64751;48.708;9.710;2023-12-28T08:09:24;0.10;;;0.10;;
76051;SDS011;64751;48.708;9.710;2023-12-28T08:11:57;0.10;;;0.10;;
76051;SDS011;64751;48.708;9.710;2023-12-28T08:14:24;0.10;;;0.10;;
76051;SDS011;64751;48.708;9.710;2023-12-28T08:16:57;0.30;;;0.20;;
76051;SDS011;64751;48.708;9.710;2023-12-28T08:19:25;0.10;;;0.10;;
76051;SDS011;64751;48.708;9.710;2023-12-28T08:21:57;0.30;;;0.30;;
76051;SDS011;64751;48.708;9.710;2023-12-28T08:24:31;0.25;;;0.25;;
76051;SDS011;64751;48.708;9.710;2023-12-28T08:26:59;0.10;;;0.10;;
76051;SDS011;64751;48.708;9.710;2023-12-28T08:29:26;0.22;;;0.22;;
76051;SDS011;64751;48.708;9.710;2023-12-28T08:31:59;0.20;;;0.20;;
76051;SDS011;64751;48.708;9.710;2023-12-28T08:34:31;0.20;;;0.20;;
76051;SDS011;64751;48.708;9.710;2023-12-28T08:36:59;0.10;;;0.10;;
76051;SDS011;64751;48.708;9.710;2023-12-28T08:39:32;0.20;;;0.10;;
76051;SDS011;64751;48.708;9.710;2023-12-28T08:42:00;0.22;;;0.22;;
76051;SDS011;64751;48.708;9.710;2023-12-28T08:44:32;0.20;;;0.20;;
76051;SDS011;64751;48.708;9.710;2023-12-28T08:47:02;0.15;;;0.15;;
76051;SDS011;64751;48.708;9.710;2023-12-28T08:49:30;0.10;;;0.10;;
76051;SDS011;64751;48.708;9.710;2023-12-28T08:51:59;0.20;;;0.20;;
76051;SDS011;64751;48.708;9.710;2023-12-28T08:54:26;0.40;;;0.40;;
76051;SDS011;64751;48.708;9.710;2023-12-28T08:57:00;0.30;;;0.30;;
76051;SDS011;64751;48.708;9.710;2023-12-28T08:59:35;0.10;;;0.10;;
76051;SDS011;64751;48.708;9.710;2023-12-28T09:02:07;0.20;;;0.20;;
76051;SDS011;64751;48.708;9.710;2023-12-28T09:04:40;0.20;;;0.20;;
76051;SDS011;64751;48.708;9.710;2023-12-28T09:07:07;0.20;;;0.20;;
76051;SDS011;64751;48.708;9.710;2023-12-28T09:09:35;0.20;;;0.20;;
76051;SDS011;64751;48.708;9.710;2023-12-28T09:12:09;0.10;;;0.10;;
76051;SDS011;64751;48.708;9.710;2023-12-28T09:14:36;0.28;;;0.28;;
76051;SDS011;64751;48.708;9.710;2023-12-28T09:17:04;0.20;;;0.20;;
76051;SDS011;64751;48.708;9.710;2023-12-28T09:19:36;0.20;;;0.20;;
76051;SDS011;64751;48.708;9.710;2023-12-28T09:22:09;0.10;;;0.10;;
76051;SDS011;64751;48.708;9.710;2023-12-28T09:24:36;0.20;;;0.20;;
76051;SDS011;64751;48.708;9.710;2023-12-28T09:27:03;0.20;;;0.20;;
76051;SDS011;64751;48.708;9.710;2023-12-28T09:29:32;0.28;;;0.28;;
76051;SDS011;64751;48.708;9.710;2023-12-28T09:32:01;0.45;;;0.30;;
76051;SDS011;64751;48.708;9.710;2023-12-28T09:34:33;0.30;;;0.30;;
76051;SDS011;64751;48.708;9.710;2023-12-28T09:37:05;0.30;;;0.30;;
76051;SDS011;64751;48.708;9.710;2023-12-28T09:39:33;0.20;;;0.20;;
76051;SDS011;64751;48.708;9.710;2023-12-28T09:42:04;0.30;;;0.30;;
76051;SDS011;64751;48.708;9.710;2023-12-28T09:44:40;0.32;;;0.30;;
76051;SDS011;64751;48.708;9.710;2023-12-28T09:47:15;0.20;;;0.20;;
76051;SDS011;64751;48.708;9.710;2023-12-28T09:49:43;0.40;;;0.30;;
76051;SDS011;64751;48.708;9.710;2023-12-28T09:52:11;0.43;;;0.43;;
76051;SDS011;64751;48.708;9.710;2023-12-28T09:54:43;0.40;;;0.40;;
76051;SDS011;64751;48.708;9.710;2023-12-28T09:57:16;0.40;;;0.40;;
76051;SDS011;64751;48.708;9.710;2023-12-28T09:59:50;0.38;;;0.38;;
76051;SDS011;64751;48.708;9.710;2023-12-28T10:02:23;0.30;;;0.30;;
76051;SDS011;64751;48.708;9.710;2023-12-28T10:04:51;0.32;;;0.32;;
76051;SDS011;64751;48.708;9.710;2023-12-28T10:07:18;0.22;;;0.22;;
76051;SDS011;64751;48.708;9.710;2023-12-28T10:09:51;0.22;;;0.22;;
76051;SDS011;64751;48.708;9.710;2023-12-28T10:12:25;0.30;;;0.30;;
76051;SDS011;64751;48.708;9.710;2023-12-28T10:15:00;0.43;;;0.40;;
76051;SDS011;64751;48.708;9.710;2023-12-28T10:17:33;0.10;;;0.10;;
76051;SDS011;64751;48.708;9.710;2023-12-28T10:20:06;0.20;;;0.20;;
76051;SDS011;64751;48.708;9.710;2023-12-28T10:22:35;0.30;;;0.30;;
76051;SDS011;64751;48.708;9.710;2023-12-28T10:25:04;0.30;;;0.30;;
76051;SDS011;64751;48.708;9.710;2023-12-28T10:27:37;0.50;;;0.45;;
76051;SDS011;64751;48.708;9.710;2023-12-28T10:30:09;0.20;;;0.20;;
76051;SDS011;64751;48.708;9.710;2023-12-28T10:32:39;0.40;;;0.40;;
76051;SDS011;64751;48.708;9.710;2023-12-28T10:35:11;0.20;;;0.20;;
76051;SDS011;64751;48.708;9.710;2023-12-28T10:37:39;0.17;;;0.17;;
76051;SDS011;64751;48.708;9.710;2023-12-28T10:40:13;0.25;;;0.20;;
76051;SDS011;64751;48.708;9.710;2023-12-28T10:42:44;0.10;;;0.10;;
76051;SDS011;64751;48.708;9.710;2023-12-28T10:45:19;0.25;;;0.22;;
76051;SDS011;64751;48.708;9.710;2023-12-28T10:47:56;0.30;;;0.30;;
76051;SDS011;64751;48.708;9.710;2023-12-28T10:50:38;0.20;;;0.20;;
76051;SDS011;64751;48.708;9.710;2023-12-28T10:53:15;0.20;;;0.20;;
76051;SDS011;64751;48.708;9.710;2023-12-28T10:56:03;0.10;;;0.10;;
76051;SDS011;64751;48.708;9.710;2023-12-28T10:58:48;0.20;;;0.20;;
76051;SDS011;64751;48.708;9.710;2023-12-28T11:01:24;0.40;;;0.28;;
76051;SDS011;64751;48.708;9.710;2023-12-28T11:04:05;0.20;;;0.20;;
76051;SDS011;64751;48.708;9.710;2023-12-28T11:06:37;0.50;;;0.30;;
76051;SDS011;64751;48.708;9.710;2023-12-28T11:09:10;0.20;;;0.20;;
76051;SDS011;64751;48.708;9.710;2023-12-28T11:11:46;0.30;;;0.30;;
76051;SDS011;64751;48.708;9.710;2023-12-28T11:14:20;0.45;;;0.40;;
76051;SDS011;64751;48.708;9.710;2023-12-28T11:16:50;0.32;;;0.20;;
76051;SDS011;64751;48.708;9.710;2023-12-28T11:19:18;0.20;;;0.20;;
76051;SDS011;64751;48.708;9.710;2023-12-28T11:21:52;0.30;;;0.30;;
76051;SDS011;64751;48.708;9.710;2023-12-28T11:24:27;0.52;;;0.40;;
76051;SDS011;64751;48.708;9.710;2023-12-28T11:26:56;0.10;;;0.10;;
76051;SDS011;64751;48.708;9.710;2023-12-28T11:29:24;0.30;;;0.30;;
76051;SDS011;64751;48.708;9.710;2023-12-28T11:31:58;0.20;;;0.20;;
76051;SDS011;64751;48.708;9.710;2023-12-28T11:34:27;0.10;;;0.10;;
76051;SDS011;64751;48.708;9.710;2023-12-28T11:36:57;0.20;;;0.20;;
76051;SDS011;64751;48.708;9.710;2023-12-28T11:39:32;0.28;;;0.28;;
76051;SDS011;64751;48.708;9.710;2023-12-28T11:42:06;0.30;;;0.30;;
76051;SDS011;64751;48.708;9.710;2023-12-28T11:44:36;0.10;;;0.10;;
76051;SDS011;64751;48.708;9.710;2023-12-28T11:47:12;0.10;;;0.10;;
76051;SDS011;64751;48.708;9.710;2023-12-28T11:49:40;0.20;;;0.20;;
76051;SDS011;64751;48.708;9.710;2023-12-28T11:52:08;0.32;;;0.32;;
76051;SDS011;64751;48.708;9.710;2023-12-28T11:54:47;0.20;;;0.20;;
76051;SDS011;64751;48.708;9.710;2023-12-28T11:57:15;1.05;;;0.77;;
76051;SDS011;64751;48.708;9.710;2023-12-28T11:59:43;0.55;;;0.38;;
76051;SDS011;64751;48.708;9.710;2023-12-28T12:02:17;0.20;;;0.20;;
76051;SDS011;64751;48.708;9.710;2023-12-28T12:04:51;0.08;;;0.08;;
76051;SDS011;64751;48.708;9.710;2023-12-28T12:07:19;0.40;;;0.40;;
76051;SDS011;64751;48.708;9.710;2023-12-28T12:09:54;0.10;;;0.10;;
76051;SDS011;64751;48.708;9.710;2023-12-28T12:12:29;0.10;;;0.10;;
76051;SDS011;64751;48.708;9.710;2023-12-28T12:15:02;0.20;;;0.20;;
76051;SDS011;64751;48.708;9.710;2023-12-28T12:17:31;0.25;;;0.22;;
76051;SDS011;64751;48.708;9.710;2023-12-28T12:19:59;0.10;;;0.10;;
76051;SDS011;64751;48.708;9.710;2023-12-28T12:22:28;0.20;;;0.20;;
76051;SDS011;64751;48.708;9.710;2023-12-28T12:25:00;0.20;;;0.20;;
76051;SDS011;64751;48.708;9.710;2023-12-28T12:27:31;0.10;;;0.10;;
76051;SDS011;64751;48.708;9.710;2023-12-28T12:30:04;0.20;;;0.20;;
76051;SDS011;64751;48.708;9.710;2023-12-28T12:32:33;0.10;;;0.10;;
76051;SDS011;64751;48.708;9.710;2023-12-28T12:35:05;0.57;;;0.45;;
76051;SDS011;64751;48.708;9.710;2023-12-28T12:37:33;0.50;;;0.50;;
76051;SDS011;64751;48.708;9.710;2023-12-28T12:40:02;0.70;;;0.70;;
76051;SDS011;64751;48.708;9.710;2023-12-28T12:42:31;0.65;;;0.65;;
76051;SDS011;64751;48.708;9.710;2023-12-28T12:45:04;0.40;;;0.40;;
76051;SDS011;64751;48.708;9.710;2023-12-28T12:47:38;0.52;;;0.52;;
76051;SDS011;64751;48.708;9.710;2023-12-28T12:50:11;0.40;;;0.40;;
76051;SDS011;64751;48.708;9.710;2023-12-28T12:52:44;0.60;;;0.60;;
76051;SDS011;64751;48.708;9.710;2023-12-28T12:55:12;0.20;;;0.20;;
76051;SDS011;64751;48.708;9.710;2023-12-28T12:57:44;0.38;;;0.38;;
76051;SDS011;64751;48.708;9.710;2023-12-28T13:00:12;0.32;;;0.32;;
76051;SDS011;64751;48.708;9.710;2023-12-28T13:02:41;0.35;;;0.35;;
76051;SDS011;64751;48.708;9.710;2023-12-28T13:05:09;0.28;;;0.28;;
76051;SDS011;64751;48.708;9.710;2023-12-28T13:07:39;0.17;;;0.17;;
76051;SDS011;64751;48.708;9.710;2023-12-28T13:10:11;0.25;;;0.25;;
76051;SDS011;64751;48.708;9.710;2023-12-28T13:12:44;0.25;;;0.20;;
76051;SDS011;64751;48.708;9.710;2023-12-28T13:15:11;0.30;;;0.30;;
76051;SDS011;64751;48.708;9.710;2023-12-28T13:17:39;0.20;;;0.20;;
76051;SDS011;64751;48.708;9.710;2023-12-28T13:20:13;0.30;;;0.30;;
76051;SDS011;64751;48.708;9.710;2023-12-28T13:22:41;0.47;;;0.47;;
76051;SDS011;64751;48.708;9.710;2023-12-28T13:25:13;0.40;;;0.40;;
76051;SDS011;64751;48.708;9.710;2023-12-28T13:27:42;0.60;;;0.60;;
76051;SDS011;64751;48.708;9.710;2023-12-28T13:30:10;1.10;;;0.63;;
76051;SDS011;64751;48.708;9.710;2023-12-28T13:32:38;1.67;;;1.58;;
76051;SDS011;64751;48.708;9.710;2023-12-28T13:35:12;1.00;;;0.90;;
76051;SDS011;64751;48.708;9.710;2023-12-28T13:37:40;0.47;;;0.47;;
76051;SDS011;64751;48.708;9.710;2023-12-28T13:40:08;0.43;;;0.43;;
76051;SDS011;64751;48.708;9.710;2023-12-28T13:42:36;0.45;;;0.45;;
76051;SDS011;64751;48.708;9.710;2023-12-28T13:45:08;0.40;;;0.40;;
76051;SDS011;64751;48.708;9.710;2023-12-28T13:47:41;0.40;;;0.40;;
76051;SDS011;64751;48.708;9.710;2023-12-28T13:50:15;0.32;;;0.32;;
76051;SDS011;64751;48.708;9.710;2023-12-28T13:52:42;0.30;;;0.30;;
76051;SDS011;64751;48.708;9.710;2023-12-28T13:55:10;0.30;;;0.30;;
76051;SDS011;64751;48.708;9.710;2023-12-28T13:57:39;0.22;;;0.22;;
76051;SDS011;64751;48.708;9.710;2023-12-28T14:00:19;0.28;;;0.28;;
76051;SDS011;64751;48.708;9.710;2023-12-28T14:02:48;0.40;;;0.40;;
76051;SDS011;64751;48.708;9.710;2023-12-28T14:05:24;0.40;;;0.40;;
76051;SDS011;64751;48.708;9.710;2023-12-28T14:07:53;0.35;;;0.20;;
76051;SDS011;64751;48.708;9.710;2023-12-28T14:10:20;0.40;;;0.40;;
76051;SDS011;64751;48.708;9.710;2023-12-28T14:12:48;0.40;;;0.40;;
76051;SDS011;64751;48.708;9.710;2023-12-28T14:15:21;0.47;;;0.47;;
76051;SDS011;64751;48.708;9.710;2023-12-28T14:17:48;0.45;;;0.45;;
76051;SDS011;64751;48.708;9.710;2023-12-28T14:20:16;0.47;;;0.47;;
76051;SDS011;64751;48.708;9.710;2023-12-28T14:22:45;0.40;;;0.40;;
76051;SDS011;64751;48.708;9.710;2023-12-28T14:25:18;0.50;;;0.50;;
76051;SDS011;64751;48.708;9.710;2023-12-28T14:27:51;0.50;;;0.45;;
76051;SDS011;64751;48.708;9.710;2023-12-28T14:30:19;0.55;;;0.52;;
76051;SDS011;64751;48.708;9.710;2023-12-28T14:32:48;0.32;;;0.32;;
76051;SDS011;64751;48.708;9.710;2023-12-28T14:35:21;0.30;;;0.30;;
76051;SDS011;64751;48.708;9.710;2023-12-28T14:37:50;0.43;;;0.43;;
76051;SDS011;64751;48.708;9.710;2023-12-28T14:40:23;0.43;;;0.43;;
76051;SDS011;64751;48.708;9.710;2023-12-28T14:42:55;0.47;;;0.47;;
76051;SDS011;64751;48.708;9.710;2023-12-28T14:45:28;0.40;;;0.40;;
76051;SDS011;64751;48.708;9.710;2023-12-28T14:47:55;0.50;;;0.50;;
76051;SDS011;64751;48.708;9.710;2023-12-28T14:50:22;0.47;;;0.47;;
76051;SDS011;64751;48.708;9.710;2023-12-28T14:52:51;0.60;;;0.60;;
76051;SDS011;64751;48.708;9.710;2023-12-28T14:55:24;0.50;;;0.50;;
76051;SDS011;64751;48.708;9.710;2023-12-28T14:57:58;0.22;;;0.22;;
76051;SDS011;64751;48.708;9.710;2023-12-28T15:00:31;0.38;;;0.35;;
76051;SDS011;64751;48.708;9.710;2023-12-28T15:03:03;0.43;;;0.43;;
76051;SDS011;64751;48.708;9.710;2023-12-28T15:05:36;0.43;;;0.43;;
76051;SDS011;64751;48.708;9.710;2023-12-28T15:08:05;0.52;;;0.52;;
76051;SDS011;64751;48.708;9.710;2023-12-28T15:10:33;0.50;;;0.50;;
76051;SDS011;64751;48.708;9.710;2023-12-28T15:13:02;0.50;;;0.50;;
76051;SDS011;64751;48.708;9.710;2023-12-28T15:15:35;0.45;;;0.45;;
76051;SDS011;64751;48.708;9.710;2023-12-28T15:18:03;0.60;;;0.60;;
76051;SDS011;64751;48.708;9.710;2023-12-28T15:20:31;0.70;;;0.68;;
76051;SDS011;64751;48.708;9.710;2023-12-28T15:23:05;0.43;;;0.43;;
76051;SDS011;64751;48.708;9.710;2023-12-28T15:25:33;0.55;;;0.55;;
76051;SDS011;64751;48.708;9.710;2023-12-28T15:28:01;0.70;;;0.70;;
76051;SDS011;64751;48.708;9.710;2023-12-28T15:30:28;0.77;;;0.75;;
76051;SDS011;64751;48.708;9.710;2023-12-28T15:32:56;0.73;;;0.68;;
76051;SDS011;64751;48.708;9.710;2023-12-28T15:35:23;0.60;;;0.60;;
76051;SDS011;64751;48.708;9.710;2023-12-28T15:37:51;0.60;;;0.60;;
76051;SDS011;64751;48.708;9.710;2023-12-28T15:40:20;0.80;;;0.68;;
76051;SDS011;64751;48.708;9.710;2023-12-28T15:42:52;0.47;;;0.47;;
76051;SDS011;64751;48.708;9.710;2023-12-28T15:45:20;0.32;;;0.32;;
76051;SDS011;64751;48.708;9.710;2023-12-28T15:47:47;0.50;;;0.50;;
76051;SDS011;64751;48.708;9.710;2023-12-28T15:50:21;0.47;;;0.47;;
76051;SDS011;64751;48.708;9.710;2023-12-28T15:52:53;0.40;;;0.40;;
76051;SDS011;64751;48.708;9.710;2023-12-28T15:55:24;0.30;;;0.30;;
76051;SDS011;64751;48.708;9.710;2023-12-28T15:57:51;0.40;;;0.40;;